Terminal Aerodrome Forecast
Issued by NWS Tulsa, OK

Home | Current Version | Previous Version | Text Only | Print | Product List | Glossary On
Versions: 1 2 3 4 5 6 7 8 9 10 11 12 13 14 15 16
797
FTUS44 KTSA 312325
TAFTUL
TAF
KTUL 312325Z 0100/0124 11007KT P6SM VCTS FEW035CB BKN250
     FM010200 VRB05KT P6SM BKN050
      TEMPO 0112/0116 BKN015
     FM011600 05005KT P6SM VCTS BKN030CB
      TEMPO 0120/0124 3SM TSRA BR BKN015CB=

USA.gov is the U.S. government's official web portal to all federal, state and local government web resources and services.